Terminal Aerodrome Forecast
Issued by NWS Upton, NY

Home | Current Version | Previous Version | Text Only | Print | Product List | Glossary On
Versions: 1 2 3 4 5 6 7 8 9 10 11 12 13 14 15 16 17 18 19 20 21 22 23 24 25 26
000
FTUS41 KOKX 291100
TAFBDR
TAF
KBDR 291121Z 2912/3012 36004KT P6SM SKC
     FM291400 03007KT P6SM SKC
     FM291700 16009KT P6SM FEW050 SCT250
     FM300300 17005KT P6SM SCT250
     FM300900 16003KT P6SM FEW020 SCT250=

USA.gov is the U.S. government's official web portal to all federal, state and local government web resources and services.